EDT,Max TemperatureF,Mean TemperatureF,Min TemperatureF,Max Dew PointF,MeanDew PointF,Min DewpointF,Max Humidity, Mean Humidity, Min Humidity, Max Sea Level PressureIn, Mean Sea Level PressureIn, Min Sea Level PressureIn, Max VisibilityMiles, Mean VisibilityMiles, Min VisibilityMiles, Max Wind SpeedMPH, Mean Wind SpeedMPH, Max Gust SpeedMPH,PrecipitationIn, CloudCover, Events, WindDirDegrees
2013-10-1,76,67,57,60,57,52,100,72,43,30.04,29.99,29.93,10,9,5,16,7,21,0.00,5,,236
2013-10-2,78,66,54,63,59,49,93,66,39,30.11,29.99,29.93,10,10,8,18,8,23,0.00,4,,260
2013-10-3,73,60,47,58,49,39,100,65,29,30.16,30.10,30.05,10,7,0,9,3,12,0.02,5,Fog,218
2013-10-4,68,64,60,65,60,55,100,91,81,30.09,30.03,30.00,10,6,2,10,4,12,0.27,8,Rain-Thunderstorm,36
2013-10-5,64,62,60,59,57,55,90,84,78,30.12,30.09,30.06,10,9,3,14,6,16,0.07,8,Rain,74
2013-10-6,83,72,61,71,64,58,100,83,65,30.02,29.90,29.75,10,8,0,16,7,25,0.56,7,Rain-Thunderstorm,132
2013-10-7,75,62,49,64,54,46,93,78,62,30.06,29.76,29.63,10,8,2,25,12,33,0.52,7,Rain,238
2013-10-8,64,54,43,48,44,40,93,68,43,30.38,30.28,30.08,10,10,8,13,4,17,0.00,2,,282
2013-10-9,68,54,39,50,44,37,96,71,45,30.44,30.37,30.30,10,10,8,9,2,10,0.00,3,,148
2013-10-10,66,53,40,46,43,38,96,68,40,30.31,30.25,30.19,10,10,10,9,3,12,0.00,5,,166
2013-10-11,68,55,42,51,46,41,96,72,48,30.19,30.16,30.14,10,10,9,12,2,14,0.00,4,,27
2013-10-12,74,58,41,50,42,38,100,66,31,30.22,30.18,30.14,10,7,0,14,5,17,0.00,1,Fog,183
2013-10-13,71,62,53,61,54,42,93,75,57,30.29,30.26,30.21,10,9,2,14,7,17,0.17,6,Rain,185
2013-10-14,64,55,45,59,52,43,93,75,57,30.35,30.31,30.27,10,8,4,12,5,15,0.06,7,Rain,299
2013-10-15,68,55,41,54,48,39,96,77,58,30.31,30.18,29.98,10,9,2,14,4,18,0.00,6,Fog,164
2013-10-16,66,62,57,58,54,48,90,73,56,29.96,29.86,29.78,10,9,1,18,10,26,0.18,8,Rain,213
2013-10-17,64,56,47,54,50,45,93,75,56,29.90,29.81,29.70,10,9,3,15,5,20,0.35,7,Rain,256
2013-10-18,61,55,48,50,43,37,89,68,47,29.93,29.85,29.74,10,10,10,22,11,31,T,5,Rain,248
2013-10-19,63,54,44,46,42,40,89,68,46,29.91,29.78,29.65,10,10,7,22,10,32,0.06,7,Rain,219
2013-10-20,55,47,39,45,40,37,92,76,59,30.01,29.92,29.78,10,10,10,17,9,22,0.01,4,Rain,227
2013-10-21,67,57,46,48,39,35,86,59,32,30.00,29.91,29.81,10,10,10,20,10,28,T,8,,215
2013-10-22,51,44,37,48,36,28,93,70,46,29.87,29.82,29.75,10,10,6,29,12,41,0.19,5,Rain,253
2013-10-23,46,40,33,38,35,30,92,79,65,29.84,29.78,29.70,10,9,3,20,6,26,0.05,6,Rain,257
2013-10-24,50,41,32,37,32,29,92,71,50,30.03,29.89,29.81,10,9,4,29,11,39,0.25,5,Rain,255
2013-10-25,50,42,33,38,36,32,100,78,56,30.20,30.15,30.04,10,9,5,18,7,22,0.03,6,Rain,267
2013-10-26,47,43,39,36,32,27,85,65,45,30.14,29.90,29.80,10,10,10,32,15,41,T,8,Rain,229
2013-10-27,49,43,37,37,35,32,85,72,58,30.08,29.97,29.83,10,10,10,17,9,,0.00,6,,251
2013-10-28,49,39,29,37,30,23,85,64,42,30.42,30.24,30.06,10,10,10,14,7,21,0.00,4,,285
2013-10-29,47,36,25,30,26,21,92,67,42,30.50,30.44,30.33,10,10,9,12,2,16,0.01,4,,64
2013-10-30,58,48,38,41,38,33,92,70,47,30.31,30.23,30.13,10,10,10,13,3,14,0.03,5,Rain,99
2013-10-31,68,54,40,58,50,37,93,81,68,30.09,29.81,29.40,10,8,2,22,8,32,0.49,7,Rain,200